TAM3122 SBSP-SBRJ
Flight info
| Callsign | TAM3122 |
|---|---|
| Flight time | 0h 40m |
| Altitude | 29000 |
| Route | NIBRU UZ171 KEVUN |
| Aircraft | A319/M-SDE3FGHIRWY/LB1 |
Departure
| Time | 2026-05-04 19:34 |
|---|---|
| Airport | Congonhas–Deputado Freitas Nobre Airport (SBSP) |
Arrival
| Time | 2026-05-04 20:14 |
|---|---|
| Airport | Santos Dumont Airport (SBRJ) |
| Time | Latitude | Longitude | Altitude | Speed | Heading |
|---|---|---|---|---|---|
| 2026-05-04 19:17 | -23.62599 | -46.65905 | 2601 ft | 0 kts | 237° |
| 2026-05-04 19:24 | -23.62598 | -46.65902 | 2601 ft | 3 kts | 237° |
| 2026-05-04 19:25 | -23.62588 | -46.65886 | 2601 ft | 3 kts | 237° |
| 2026-05-04 19:25 | -23.62578 | -46.65868 | 2601 ft | 3 kts | 237° |
| 2026-05-04 19:25 | -23.62567 | -46.65853 | 2601 ft | 3 kts | 214° |
| 2026-05-04 19:25 | -23.62553 | -46.65841 | 2602 ft | 3 kts | 189° |
| 2026-05-04 19:26 | -23.62536 | -46.65843 | 2602 ft | 3 kts | 151° |
| 2026-05-04 19:26 | -23.62534 | -46.65844 | 2602 ft | 0 kts | 151° |
| 2026-05-04 19:27 | -23.62538 | -46.65842 | 2602 ft | 1 kts | 151° |
| 2026-05-04 19:27 | -23.62546 | -46.65838 | 2602 ft | 3 kts | 150° |
| 2026-05-04 19:27 | -23.62569 | -46.65821 | 2602 ft | 5 kts | 147° |
| 2026-05-04 19:28 | -23.62603 | -46.65798 | 2602 ft | 6 kts | 147° |
| 2026-05-04 19:28 | -23.62644 | -46.65770 | 2602 ft | 7 kts | 147° |
| 2026-05-04 19:28 | -23.62691 | -46.65737 | 2602 ft | 8 kts | 148° |
| 2026-05-04 19:28 | -23.62742 | -46.65702 | 2602 ft | 9 kts | 148° |
| 2026-05-04 19:29 | -23.62797 | -46.65664 | 2603 ft | 10 kts | 148° |
| 2026-05-04 19:29 | -23.62857 | -46.65623 | 2603 ft | 11 kts | 148° |
| 2026-05-04 19:29 | -23.62923 | -46.65579 | 2603 ft | 12 kts | 148° |
| 2026-05-04 19:29 | -23.62993 | -46.65529 | 2603 ft | 12 kts | 152° |
| 2026-05-04 19:30 | -23.63079 | -46.65506 | 2602 ft | 13 kts | 156° |
| 2026-05-04 19:30 | -23.63159 | -46.65450 | 2602 ft | 14 kts | 146° |
| 2026-05-04 19:30 | -23.63243 | -46.65392 | 2602 ft | 15 kts | 148° |
| 2026-05-04 19:30 | -23.63331 | -46.65331 | 2602 ft | 15 kts | 147° |
| 2026-05-04 19:31 | -23.63407 | -46.65278 | 2602 ft | 11 kts | 147° |
| 2026-05-04 19:31 | -23.63466 | -46.65237 | 2601 ft | 7 kts | 147° |
| 2026-05-04 19:31 | -23.63476 | -46.65230 | 2601 ft | 0 kts | 147° |
| 2026-05-04 19:32 | -23.63500 | -46.65210 | 2600 ft | 8 kts | 133° |
| 2026-05-04 19:32 | -23.63489 | -46.65150 | 2599 ft | 10 kts | 39° |
| 2026-05-04 19:33 | -23.63434 | -46.65120 | 2601 ft | 7 kts | 2° |
| 2026-05-04 19:33 | -23.63414 | -46.65130 | 2602 ft | 0 kts | 328° |
| 2026-05-04 19:33 | -23.63413 | -46.65130 | 2602 ft | 1 kts | 328° |
| 2026-05-04 19:33 | -23.63220 | -46.65264 | 2610 ft | 74 kts | 327° |
| 2026-05-04 19:34 | -23.62825 | -46.65538 | 2608 ft | 124 kts | 327° |
| 2026-05-04 19:34 | -23.61950 | -46.66172 | 2800 ft | 162 kts | 322° |
| 2026-05-04 19:34 | -23.61014 | -46.66848 | 3581 ft | 162 kts | 329° |
| 2026-05-04 19:34 | -23.59906 | -46.67154 | 4093 ft | 178 kts | 4° |
| 2026-05-04 19:35 | -23.58733 | -46.66521 | 4370 ft | 211 kts | 46° |
| 2026-05-04 19:35 | -23.58213 | -46.64964 | 4873 ft | 234 kts | 90° |
| 2026-05-04 19:35 | -23.58610 | -46.63211 | 5626 ft | 244 kts | 111° |
| 2026-05-04 19:35 | -23.59366 | -46.61533 | 6415 ft | 251 kts | 118° |
| 2026-05-04 19:36 | -23.60122 | -46.59762 | 7016 ft | 268 kts | 111° |
| 2026-05-04 19:36 | -23.60775 | -46.57759 | 7456 ft | 292 kts | 107° |
| 2026-05-04 19:36 | -23.61519 | -46.55657 | 8189 ft | 302 kts | 123° |
| 2026-05-04 19:36 | -23.62911 | -46.53941 | 9124 ft | 303 kts | 137° |
| 2026-05-04 19:37 | -23.64429 | -46.52337 | 10131 ft | 304 kts | 137° |
| 2026-05-04 19:37 | -23.65972 | -46.50712 | 10631 ft | 324 kts | 137° |
| 2026-05-04 19:37 | -23.67656 | -46.48940 | 11172 ft | 338 kts | 137° |
| 2026-05-04 19:37 | -23.69194 | -46.46964 | 11931 ft | 346 kts | 124° |
| 2026-05-04 19:38 | -23.70244 | -46.44628 | 12718 ft | 352 kts | 110° |
| 2026-05-04 19:38 | -23.70760 | -46.41999 | 13515 ft | 358 kts | 95° |
| 2026-05-04 19:38 | -23.70667 | -46.39271 | 14269 ft | 363 kts | 82° |
| 2026-05-04 19:38 | -23.70269 | -46.36495 | 14961 ft | 368 kts | 81° |
| 2026-05-04 19:39 | -23.69877 | -46.33757 | 15617 ft | 373 kts | 81° |
| 2026-05-04 19:39 | -23.69475 | -46.30942 | 16277 ft | 378 kts | 81° |
| 2026-05-04 19:39 | -23.69068 | -46.28093 | 16927 ft | 383 kts | 81° |
| 2026-05-04 19:39 | -23.68654 | -46.25201 | 17560 ft | 388 kts | 81° |
| 2026-05-04 19:40 | -23.68236 | -46.22275 | 18200 ft | 393 kts | 81° |
| 2026-05-04 19:40 | -23.67813 | -46.19312 | 18777 ft | 397 kts | 81° |
| 2026-05-04 19:40 | -23.67382 | -46.16320 | 19348 ft | 402 kts | 81° |
| 2026-05-04 19:40 | -23.66947 | -46.13294 | 19902 ft | 406 kts | 81° |
| 2026-05-04 19:41 | -23.66505 | -46.10237 | 20486 ft | 410 kts | 81° |
| 2026-05-04 19:41 | -23.66062 | -46.07155 | 21076 ft | 413 kts | 82° |
| 2026-05-04 19:41 | -23.65618 | -46.04047 | 21665 ft | 417 kts | 82° |
| 2026-05-04 19:41 | -23.65170 | -46.00912 | 22250 ft | 420 kts | 82° |
| 2026-05-04 19:42 | -23.64717 | -45.97748 | 22839 ft | 424 kts | 82° |
| 2026-05-04 19:42 | -23.64261 | -45.94560 | 23431 ft | 427 kts | 82° |
| 2026-05-04 19:42 | -23.63797 | -45.91351 | 23954 ft | 431 kts | 82° |
| 2026-05-04 19:42 | -23.63325 | -45.88115 | 24425 ft | 434 kts | 82° |
| 2026-05-04 19:43 | -23.62848 | -45.84845 | 24878 ft | 438 kts | 82° |
| 2026-05-04 19:43 | -23.62369 | -45.81552 | 25331 ft | 442 kts | 82° |
| 2026-05-04 19:43 | -23.61888 | -45.78231 | 25773 ft | 445 kts | 82° |
| 2026-05-04 19:43 | -23.61414 | -45.74935 | 26208 ft | 449 kts | 82° |
| 2026-05-04 19:44 | -23.60917 | -45.71506 | 26637 ft | 452 kts | 82° |
| 2026-05-04 19:44 | -23.60422 | -45.68109 | 27074 ft | 456 kts | 82° |
| 2026-05-04 19:44 | -23.59921 | -45.64682 | 27489 ft | 459 kts | 82° |
| 2026-05-04 19:44 | -23.59416 | -45.61233 | 27906 ft | 463 kts | 82° |
| 2026-05-04 19:45 | -23.58906 | -45.57758 | 28314 ft | 466 kts | 82° |
| 2026-05-04 19:45 | -23.58391 | -45.54258 | 28716 ft | 469 kts | 82° |
| 2026-05-04 19:45 | -23.57872 | -45.50730 | 29054 ft | 473 kts | 82° |
| 2026-05-04 19:46 | -23.56772 | -45.43808 | 29141 ft | 448 kts | 79° |
| 2026-05-04 19:46 | -23.55405 | -45.37314 | 28809 ft | 434 kts | 76° |
| 2026-05-04 19:46 | -23.54679 | -45.34138 | 28547 ft | 431 kts | 76° |
| 2026-05-04 19:47 | -23.53960 | -45.30978 | 28286 ft | 428 kts | 76° |
| 2026-05-04 19:47 | -23.53263 | -45.27834 | 28033 ft | 426 kts | 77° |
| 2026-05-04 19:47 | -23.52585 | -45.24703 | 27778 ft | 423 kts | 77° |
| 2026-05-04 19:47 | -23.51923 | -45.21585 | 27525 ft | 421 kts | 77° |
| 2026-05-04 19:48 | -23.51268 | -45.18486 | 27277 ft | 419 kts | 77° |
| 2026-05-04 19:48 | -23.50624 | -45.15436 | 27042 ft | 417 kts | 77° |
| 2026-05-04 19:48 | -23.49983 | -45.12402 | 26800 ft | 416 kts | 77° |
| 2026-05-04 19:48 | -23.49331 | -45.09334 | 26554 ft | 414 kts | 77° |
| 2026-05-04 19:49 | -23.48682 | -45.06291 | 26297 ft | 412 kts | 77° |
| 2026-05-04 19:49 | -23.48034 | -45.03260 | 26081 ft | 410 kts | 77° |
| 2026-05-04 19:49 | -23.47387 | -45.00244 | 25831 ft | 408 kts | 77° |
| 2026-05-04 19:49 | -23.46743 | -44.97255 | 25449 ft | 405 kts | 77° |
| 2026-05-04 19:50 | -23.46097 | -44.94272 | 24956 ft | 404 kts | 77° |
| 2026-05-04 19:50 | -23.45446 | -44.91304 | 24496 ft | 402 kts | 76° |
| 2026-05-04 19:50 | -23.44792 | -44.88349 | 24026 ft | 401 kts | 76° |
| 2026-05-04 19:50 | -23.44135 | -44.85399 | 23524 ft | 400 kts | 76° |
| 2026-05-04 19:51 | -23.43479 | -44.82464 | 23027 ft | 398 kts | 76° |
| 2026-05-04 19:51 | -23.42825 | -44.79551 | 22583 ft | 394 kts | 76° |
| 2026-05-04 19:51 | -23.42179 | -44.76662 | 22117 ft | 392 kts | 76° |
| 2026-05-04 19:51 | -23.41538 | -44.73787 | 21675 ft | 389 kts | 76° |
| 2026-05-04 19:52 | -23.40904 | -44.70937 | 21236 ft | 387 kts | 76° |
| 2026-05-04 19:52 | -23.40272 | -44.68096 | 20786 ft | 384 kts | 76° |
| 2026-05-04 19:52 | -23.39645 | -44.65278 | 20359 ft | 382 kts | 76° |
| 2026-05-04 19:52 | -23.39019 | -44.62473 | 19927 ft | 381 kts | 76° |
| 2026-05-04 19:53 | -23.38402 | -44.59709 | 19504 ft | 379 kts | 76° |
| 2026-05-04 19:53 | -23.37774 | -44.56893 | 19065 ft | 378 kts | 76° |
| 2026-05-04 19:53 | -23.37154 | -44.54122 | 18640 ft | 376 kts | 76° |
| 2026-05-04 19:53 | -23.36533 | -44.51361 | 18184 ft | 375 kts | 76° |
| 2026-05-04 19:54 | -23.35914 | -44.48613 | 17750 ft | 372 kts | 76° |
| 2026-05-04 19:54 | -23.35298 | -44.45889 | 17338 ft | 369 kts | 76° |
| 2026-05-04 19:54 | -23.34684 | -44.43188 | 16929 ft | 367 kts | 75° |
| 2026-05-04 19:54 | -23.33784 | -44.40607 | 16529 ft | 363 kts | 64° |
| 2026-05-04 19:55 | -23.32716 | -44.38124 | 16129 ft | 361 kts | 64° |
| 2026-05-04 19:55 | -23.31656 | -44.35653 | 15731 ft | 359 kts | 64° |
| 2026-05-04 19:55 | -23.30603 | -44.33194 | 15346 ft | 357 kts | 65° |
| 2026-05-04 19:55 | -23.29557 | -44.30754 | 14956 ft | 356 kts | 65° |
| 2026-05-04 19:56 | -23.28511 | -44.28319 | 14562 ft | 354 kts | 65° |
| 2026-05-04 19:56 | -23.27470 | -44.25896 | 14169 ft | 353 kts | 65° |
| 2026-05-04 19:56 | -23.26437 | -44.23498 | 13763 ft | 352 kts | 65° |
| 2026-05-04 19:56 | -23.25395 | -44.21087 | 13352 ft | 349 kts | 65° |
| 2026-05-04 19:57 | -23.24368 | -44.18712 | 12955 ft | 346 kts | 65° |
| 2026-05-04 19:57 | -23.23350 | -44.16356 | 12558 ft | 343 kts | 65° |
| 2026-05-04 19:57 | -23.22338 | -44.14016 | 12162 ft | 341 kts | 65° |
| 2026-05-04 19:57 | -23.21334 | -44.11693 | 11753 ft | 339 kts | 65° |
| 2026-05-04 19:58 | -23.20333 | -44.09380 | 11346 ft | 337 kts | 65° |
| 2026-05-04 19:58 | -23.19336 | -44.07085 | 11000 ft | 333 kts | 64° |
| 2026-05-04 19:58 | -23.18334 | -44.04861 | 10868 ft | 323 kts | 63° |
| 2026-05-04 19:58 | -23.17334 | -44.02697 | 10702 ft | 319 kts | 63° |
| 2026-05-04 19:59 | -23.16339 | -44.00560 | 10534 ft | 317 kts | 63° |
| 2026-05-04 19:59 | -23.15351 | -43.98420 | 10367 ft | 317 kts | 63° |
| 2026-05-04 19:59 | -23.14401 | -43.96262 | 10207 ft | 316 kts | 64° |
| 2026-05-04 19:59 | -23.13484 | -43.94109 | 10029 ft | 314 kts | 65° |
| 2026-05-04 20:00 | -23.12591 | -43.91988 | 9856 ft | 312 kts | 65° |
| 2026-05-04 20:00 | -23.11678 | -43.89821 | 9684 ft | 310 kts | 65° |
| 2026-05-04 20:00 | -23.10778 | -43.87699 | 9524 ft | 309 kts | 65° |
| 2026-05-04 20:00 | -23.09875 | -43.85580 | 9358 ft | 309 kts | 65° |
| 2026-05-04 20:01 | -23.08985 | -43.83497 | 9195 ft | 307 kts | 64° |
| 2026-05-04 20:01 | -23.08100 | -43.81424 | 9026 ft | 307 kts | 64° |
| 2026-05-04 20:01 | -23.07198 | -43.79316 | 8865 ft | 307 kts | 64° |
| 2026-05-04 20:01 | -23.06298 | -43.77218 | 8702 ft | 305 kts | 64° |
| 2026-05-04 20:02 | -23.05401 | -43.75133 | 8541 ft | 305 kts | 64° |
| 2026-05-04 20:02 | -23.04500 | -43.73044 | 8378 ft | 305 kts | 64° |
| 2026-05-04 20:02 | -23.03606 | -43.70968 | 8216 ft | 303 kts | 64° |
| 2026-05-04 20:02 | -23.02716 | -43.68899 | 8011 ft | 303 kts | 64° |
| 2026-05-04 20:03 | -23.01817 | -43.66829 | 7723 ft | 302 kts | 64° |
| 2026-05-04 20:03 | -23.00921 | -43.64783 | 7444 ft | 299 kts | 63° |
| 2026-05-04 20:03 | -23.00027 | -43.62744 | 7088 ft | 298 kts | 63° |
| 2026-05-04 20:03 | -22.99142 | -43.60730 | 6861 ft | 295 kts | 63° |
| 2026-05-04 20:04 | -22.98260 | -43.58727 | 6685 ft | 293 kts | 63° |
| 2026-05-04 20:04 | -22.97379 | -43.56728 | 6509 ft | 294 kts | 63° |
| 2026-05-04 20:04 | -22.96499 | -43.54732 | 6324 ft | 292 kts | 62° |
| 2026-05-04 20:04 | -22.95629 | -43.52755 | 6165 ft | 290 kts | 63° |
| 2026-05-04 20:05 | -22.94786 | -43.50770 | 5977 ft | 289 kts | 67° |
| 2026-05-04 20:05 | -22.94131 | -43.48705 | 5767 ft | 288 kts | 69° |
| 2026-05-04 20:05 | -22.93489 | -43.46673 | 5518 ft | 283 kts | 68° |
| 2026-05-04 20:05 | -22.92850 | -43.44665 | 5307 ft | 280 kts | 68° |
| 2026-05-04 20:06 | -22.92212 | -43.42670 | 5106 ft | 278 kts | 69° |
| 2026-05-04 20:06 | -22.91792 | -43.40627 | 4889 ft | 280 kts | 77° |
| 2026-05-04 20:06 | -22.91458 | -43.38554 | 4664 ft | 277 kts | 77° |
| 2026-05-04 20:06 | -22.91139 | -43.36578 | 4446 ft | 262 kts | 77° |
| 2026-05-04 20:07 | -22.90833 | -43.34673 | 4250 ft | 243 kts | 78° |
| 2026-05-04 20:07 | -22.90553 | -43.32927 | 4066 ft | 227 kts | 76° |
| 2026-05-04 20:07 | -22.90294 | -43.31310 | 3906 ft | 209 kts | 76° |
| 2026-05-04 20:07 | -22.90059 | -43.29825 | 3767 ft | 191 kts | 77° |
| 2026-05-04 20:08 | -22.89841 | -43.28459 | 3607 ft | 175 kts | 76° |
| 2026-05-04 20:08 | -22.89726 | -43.27215 | 3487 ft | 159 kts | 85° |
| 2026-05-04 20:08 | -22.89821 | -43.26098 | 3343 ft | 139 kts | 91° |
| 2026-05-04 20:08 | -22.89905 | -43.25097 | 3228 ft | 130 kts | 93° |
| 2026-05-04 20:09 | -22.89982 | -43.24129 | 3117 ft | 128 kts | 92° |
| 2026-05-04 20:09 | -22.90059 | -43.23163 | 3014 ft | 128 kts | 93° |
| 2026-05-04 20:09 | -22.90135 | -43.22207 | 2899 ft | 128 kts | 93° |
| 2026-05-04 20:09 | -22.90210 | -43.21249 | 2792 ft | 126 kts | 93° |
| 2026-05-04 20:10 | -22.90286 | -43.20302 | 2684 ft | 126 kts | 93° |
| 2026-05-04 20:10 | -22.90363 | -43.19360 | 2571 ft | 125 kts | 94° |
| 2026-05-04 20:10 | -22.90439 | -43.18424 | 2463 ft | 124 kts | 94° |
| 2026-05-04 20:10 | -22.90511 | -43.17489 | 2357 ft | 124 kts | 93° |
| 2026-05-04 20:11 | -22.90500 | -43.16552 | 2247 ft | 124 kts | 89° |
| 2026-05-04 20:11 | -22.90488 | -43.15632 | 2148 ft | 123 kts | 89° |
| 2026-05-04 20:11 | -22.90477 | -43.14705 | 2041 ft | 123 kts | 88° |
| 2026-05-04 20:11 | -22.90361 | -43.13791 | 1907 ft | 124 kts | 71° |
| 2026-05-04 20:12 | -22.89866 | -43.13028 | 1733 ft | 127 kts | 44° |
| 2026-05-04 20:12 | -22.89081 | -43.12601 | 1552 ft | 129 kts | 18° |
| 2026-05-04 20:12 | -22.88174 | -43.12635 | 1383 ft | 135 kts | 348° |
| 2026-05-04 20:12 | -22.87368 | -43.13169 | 1192 ft | 140 kts | 317° |
| 2026-05-04 20:13 | -22.86923 | -43.14110 | 1008 ft | 143 kts | 282° |
| 2026-05-04 20:13 | -22.87009 | -43.15168 | 817 ft | 142 kts | 246° |
| 2026-05-04 20:13 | -22.87567 | -43.16003 | 640 ft | 135 kts | 215° |
| 2026-05-04 20:13 | -22.88388 | -43.16403 | 472 ft | 126 kts | 185° |
| 2026-05-04 20:14 | -22.89239 | -43.16435 | 265 ft | 121 kts | 173° |
| 2026-05-04 20:14 | -22.90085 | -43.16363 | 122 ft | 124 kts | 173° |
| 2026-05-04 20:14 | -22.90897 | -43.16289 | 23 ft | 79 kts | 177° |
| 2026-05-04 20:14 | -22.91178 | -43.16273 | 21 ft | 26 kts | 176° |
| 2026-05-04 20:15 | -22.91301 | -43.16270 | 20 ft | 11 kts | 194° |
| 2026-05-04 20:15 | -22.91346 | -43.16333 | 20 ft | 11 kts | 267° |
| 2026-05-04 20:15 | -22.91347 | -43.16381 | 21 ft | 5 kts | 269° |
| 2026-05-04 20:15 | -22.91348 | -43.16407 | 21 ft | 3 kts | 267° |
| 2026-05-04 20:16 | -22.91349 | -43.16429 | 22 ft | 4 kts | 267° |
| 2026-05-04 20:16 | -22.91350 | -43.16485 | 22 ft | 9 kts | 271° |
| 2026-05-04 20:16 | -22.91350 | -43.16526 | 22 ft | 3 kts | 268° |
| 2026-05-04 20:16 | -22.91351 | -43.16554 | 22 ft | 4 kts | 268° |
| 2026-05-04 20:17 | -22.91351 | -43.16571 | 22 ft | 1 kts | 268° |
| 2026-05-04 20:17 | -22.91351 | -43.16576 | 22 ft | 0 kts | 268° |